Randy J. — WDD9484 — position and weather

sailwx.info

Track history (hours):
 
Tides and Currents Weather Stations Pressure Air Temp Water Temp Dewpoint Dewpoint Depression Visibility Wind Speed Wind Dir Waves Ship Positions

Randy J.

Owner: Tobias Inc, Erath, LA. More information available from US FCC via Universal Licensing System and Coast Guard Vessel Documentation Center.

Last reported at 2017-Oct-19 22:58 UTC. Time now 2017-Oct-20 01:21 UTC.
Position N 29°49' W 093°20'.

Length 45 m; draft 2.8 m.

Type: Passenger vessel. MMSI: 367312120.

Date/timePositionNaut miles runAvg speedWind from/ knotsBaromVisibWave heightAir tempDewpointWater temp
2017-Oct-19 22:58N 29°49' W 093°20'5 0.5
2017-Oct-19 14:02N 29°45' W 093°20'116.6
2017-Oct-19 13:59N 29°45' W 093°21'4 8.0
2017-Oct-19 13:30N 29°49' W 093°20'1 0.5
2017-Oct-19 12:33N 29°49' W 093°21'0 8.1
2017-Oct-19 12:30N 29°49' W 093°21'5 9.9
2017-Oct-19 12:00N 29°44' W 093°20'5 0.2
2017-Oct-18 06:24N 29°49' W 093°21'0 1.1
2017-Oct-18 06:00N 29°49' W 093°20'0 0.0
2017-Oct-18 05:30N 29°49' W 093°20'0 0.1
2017-Oct-18 03:38N 29°49' W 093°20'0 0.0
2017-Oct-18 03:23N 29°49' W 093°20'0 0.0
2017-Oct-18 01:39N 29°49' W 093°20'0 0.0
2017-Oct-17 08:49N 29°49' W 093°21'0 0.0
2017-Oct-15 19:53N 29°49' W 093°20'1 0.1
2017-Oct-15 11:06N 29°49' W 093°21'1 8.6
2017-Oct-15 10:59N 29°48' W 093°21'1 0.1
2017-Oct-14 20:33N 29°49' W 093°20'0 0.1
2017-Oct-14 20:28N 29°49' W 093°20'0 0.0
2017-Oct-14 19:57N 29°49' W 093°20'0 0.0
2017-Oct-14 19:23N 29°49' W 093°20'1 0.1
2017-Oct-14 08:51N 29°48' W 093°21'1 0.8
2017-Oct-14 07:12N 29°49' W 093°20'0 0.1
2017-Oct-14 06:46N 29°49' W 093°20'0 0.0
2017-Oct-14 06:16N 29°49' W 093°20'0 0.0
2017-Oct-14 04:31N 29°49' W 093°20'0 0.5
2017-Oct-14 04:29N 29°49' W 093°20'510.7
2017-Oct-14 04:00N 29°44' W 093°20'5 0.4
2017-Oct-13 14:35N 29°49' W 093°20'0 0.2
2017-Oct-13 14:05N 29°49' W 093°20'0 0.0
2017-Oct-13 13:50N 29°49' W 093°20'0 0.1
2017-Oct-13 13:30N 29°49' W 093°20'0 0.0
2017-Oct-13 08:37N 29°49' W 093°20'0 0.0
2017-Oct-13 08:24N 29°49' W 093°20'0 0.0
2017-Oct-13 08:00N 29°49' W 093°20'4 8.0
2017-Oct-13 07:30N 29°45' W 093°21'815.6
2017-Oct-13 07:00N 29°40' W 093°14'11 1.3
2017-Oct-12 22:26N 29°49' W 093°20'3 1.4
2017-Oct-12 20:22N 29°46' W 093°21'3 6.2
2017-Oct-12 19:54N 29°49' W 093°20'0 0.0
2017-Oct-12 03:17N 29°49' W 093°20'0 0.3
2017-Oct-12 03:00N 29°49' W 093°20'1 0.0
2017-Oct-10 19:15N 29°49' W 093°21'2 6.2
2017-Oct-10 18:58N 29°47' W 093°21'2 0.1
2017-Oct-09 23:09N 29°49' W 093°20'  
Track history (hours):
 
Tides and Currents Weather Stations Pressure Air Temp Water Temp Dewpoint Dewpoint Depression Visibility Wind Speed Wind Dir Waves Ship Positions

Randy J.

Owner: Tobias Inc, Erath, LA. More information available from US FCC via Universal Licensing System and Coast Guard Vessel Documentation Center.

Last reported at 2017-Oct-19 22:58 UTC. Time now 2017-Oct-20 01:21 UTC.
Position N 29°49' W 093°20'.

Length 45 m; draft 2.8 m.

Type: Passenger vessel. MMSI: 367312120.

Date/timePositionNaut miles runAvg speedWind from/ knotsBaromVisibWave heightAir tempDewpointWater temp
2017-Oct-19 22:58N 29°49' W 093°20'5 0.5
2017-Oct-19 14:02N 29°45' W 093°20'116.6
2017-Oct-19 13:59N 29°45' W 093°21'4 8.0
2017-Oct-19 13:30N 29°49' W 093°20'1 0.5
2017-Oct-19 12:33N 29°49' W 093°21'0 8.1
2017-Oct-19 12:30N 29°49' W 093°21'5 9.9
2017-Oct-19 12:00N 29°44' W 093°20'5 0.2
2017-Oct-18 06:24N 29°49' W 093°21'0 1.1
2017-Oct-18 06:00N 29°49' W 093°20'0 0.0
2017-Oct-18 05:30N 29°49' W 093°20'0 0.1
2017-Oct-18 03:38N 29°49' W 093°20'0 0.0
2017-Oct-18 03:23N 29°49' W 093°20'0 0.0
2017-Oct-18 01:39N 29°49' W 093°20'0 0.0
2017-Oct-17 08:49N 29°49' W 093°21'0 0.0
2017-Oct-15 19:53N 29°49' W 093°20'1 0.1
2017-Oct-15 11:06N 29°49' W 093°21'1 8.6
2017-Oct-15 10:59N 29°48' W 093°21'1 0.1
2017-Oct-14 20:33N 29°49' W 093°20'0 0.1
2017-Oct-14 20:28N 29°49' W 093°20'0 0.0
2017-Oct-14 19:57N 29°49' W 093°20'0 0.0
2017-Oct-14 19:23N 29°49' W 093°20'1 0.1
2017-Oct-14 08:51N 29°48' W 093°21'1 0.8
2017-Oct-14 07:12N 29°49' W 093°20'0 0.1
2017-Oct-14 06:46N 29°49' W 093°20'0 0.0
2017-Oct-14 06:16N 29°49' W 093°20'0 0.0
2017-Oct-14 04:31N 29°49' W 093°20'0 0.5
2017-Oct-14 04:29N 29°49' W 093°20'510.7
2017-Oct-14 04:00N 29°44' W 093°20'5 0.4
2017-Oct-13 14:35N 29°49' W 093°20'0 0.2
2017-Oct-13 14:05N 29°49' W 093°20'0 0.0
2017-Oct-13 13:50N 29°49' W 093°20'0 0.1
2017-Oct-13 13:30N 29°49' W 093°20'0 0.0
2017-Oct-13 08:37N 29°49' W 093°20'0 0.0
2017-Oct-13 08:24N 29°49' W 093°20'0 0.0
2017-Oct-13 08:00N 29°49' W 093°20'4 8.0
2017-Oct-13 07:30N 29°45' W 093°21'815.6
2017-Oct-13 07:00N 29°40' W 093°14'11 1.3
2017-Oct-12 22:26N 29°49' W 093°20'3 1.4
2017-Oct-12 20:22N 29°46' W 093°21'3 6.2
2017-Oct-12 19:54N 29°49' W 093°20'0 0.0
2017-Oct-12 03:17N 29°49' W 093°20'0 0.3
2017-Oct-12 03:00N 29°49' W 093°20'1 0.0
2017-Oct-10 19:15N 29°49' W 093°21'2 6.2
2017-Oct-10 18:58N 29°47' W 093°21'2 0.1
2017-Oct-09 23:09N 29°49' W 093°20'  

Dump ship's entire track history